sensor_id;sensor_type;location;lat;lon;timestamp;P1;durP1;ratioP1;P2;durP2;ratioP2
28180;SDS011;15464;50.988;10.318;2023-08-06T00:00:53;4.15;;;2.30;;
28180;SDS011;15464;50.988;10.318;2023-08-06T00:03:20;3.63;;;2.15;;
28180;SDS011;15464;50.988;10.318;2023-08-06T00:05:46;2.83;;;2.63;;
28180;SDS011;15464;50.988;10.318;2023-08-06T00:08:13;3.42;;;2.78;;
28180;SDS011;15464;50.988;10.318;2023-08-06T00:10:40;3.47;;;2.70;;
28180;SDS011;15464;50.988;10.318;2023-08-06T00:13:07;3.67;;;2.67;;
28180;SDS011;15464;50.988;10.318;2023-08-06T00:15:34;3.65;;;2.88;;
28180;SDS011;15464;50.988;10.318;2023-08-06T00:18:01;2.60;;;2.40;;
28180;SDS011;15464;50.988;10.318;2023-08-06T00:20:28;3.40;;;2.15;;
28180;SDS011;15464;50.988;10.318;2023-08-06T00:22:54;3.10;;;2.40;;
28180;SDS011;15464;50.988;10.318;2023-08-06T00:25:21;3.90;;;2.45;;
28180;SDS011;15464;50.988;10.318;2023-08-06T00:27:48;3.90;;;2.55;;
28180;SDS011;15464;50.988;10.318;2023-08-06T00:30:14;3.30;;;3.00;;
28180;SDS011;15464;50.988;10.318;2023-08-06T00:32:41;2.95;;;2.75;;
28180;SDS011;15464;50.988;10.318;2023-08-06T00:35:08;3.67;;;2.65;;
28180;SDS011;15464;50.988;10.318;2023-08-06T00:37:35;3.67;;;2.75;;
28180;SDS011;15464;50.988;10.318;2023-08-06T00:40:01;4.35;;;2.58;;
28180;SDS011;15464;50.988;10.318;2023-08-06T00:42:28;3.70;;;2.25;;
28180;SDS011;15464;50.988;10.318;2023-08-06T00:44:55;3.20;;;2.80;;
28180;SDS011;15464;50.988;10.318;2023-08-06T00:47:21;3.22;;;2.50;;
28180;SDS011;15464;50.988;10.318;2023-08-06T00:49:48;3.65;;;2.88;;
28180;SDS011;15464;50.988;10.318;2023-08-06T00:52:16;3.50;;;2.60;;
28180;SDS011;15464;50.988;10.318;2023-08-06T00:54:42;5.13;;;2.75;;
28180;SDS011;15464;50.988;10.318;2023-08-06T00:57:09;3.35;;;2.85;;
28180;SDS011;15464;50.988;10.318;2023-08-06T00:59:37;4.55;;;2.65;;
28180;SDS011;15464;50.988;10.318;2023-08-06T01:02:04;3.22;;;2.78;;
28180;SDS011;15464;50.988;10.318;2023-08-06T01:04:31;3.08;;;2.83;;
28180;SDS011;15464;50.988;10.318;2023-08-06T01:10:08;2.60;;;2.40;;
28180;SDS011;15464;50.988;10.318;2023-08-06T01:13:13;2.78;;;2.55;;
28180;SDS011;15464;50.988;10.318;2023-08-06T01:15:53;2.65;;;2.40;;
28180;SDS011;15464;50.988;10.318;2023-08-06T01:18:25;3.85;;;2.38;;
28180;SDS011;15464;50.988;10.318;2023-08-06T01:20:52;2.58;;;2.30;;
28180;SDS011;15464;50.988;10.318;2023-08-06T01:23:19;3.97;;;2.20;;
28180;SDS011;15464;50.988;10.318;2023-08-06T01:25:58;2.83;;;2.25;;
28180;SDS011;15464;50.988;10.318;2023-08-06T01:28:47;2.47;;;2.20;;
28180;SDS011;15464;50.988;10.318;2023-08-06T01:31:22;3.38;;;2.50;;
28180;SDS011;15464;50.988;10.318;2023-08-06T01:33:53;2.83;;;2.33;;
28180;SDS011;15464;50.988;10.318;2023-08-06T01:36:22;3.03;;;2.28;;
28180;SDS011;15464;50.988;10.318;2023-08-06T01:38:51;3.13;;;2.58;;
28180;SDS011;15464;50.988;10.318;2023-08-06T01:41:19;3.28;;;2.55;;
28180;SDS011;15464;50.988;10.318;2023-08-06T01:44:08;3.20;;;2.58;;
28180;SDS011;15464;50.988;10.318;2023-08-06T01:46:35;6.65;;;3.00;;
28180;SDS011;15464;50.988;10.318;2023-08-06T01:49:02;3.65;;;2.47;;
28180;SDS011;15464;50.988;10.318;2023-08-06T01:51:28;3.65;;;2.15;;
28180;SDS011;15464;50.988;10.318;2023-08-06T01:53:55;3.08;;;2.20;;
28180;SDS011;15464;50.988;10.318;2023-08-06T01:56:22;2.65;;;2.45;;
28180;SDS011;15464;50.988;10.318;2023-08-06T01:58:48;3.80;;;2.70;;
28180;SDS011;15464;50.988;10.318;2023-08-06T02:01:15;2.85;;;2.38;;
28180;SDS011;15464;50.988;10.318;2023-08-06T02:03:42;10.20;;;3.13;;
28180;SDS011;15464;50.988;10.318;2023-08-06T02:06:08;4.57;;;2.22;;
28180;SDS011;15464;50.988;10.318;2023-08-06T02:08:35;5.88;;;2.75;;
28180;SDS011;15464;50.988;10.318;2023-08-06T02:11:02;3.45;;;2.97;;
28180;SDS011;15464;50.988;10.318;2023-08-06T02:13:29;3.90;;;3.00;;
28180;SDS011;15464;50.988;10.318;2023-08-06T02:15:55;4.68;;;2.90;;
28180;SDS011;15464;50.988;10.318;2023-08-06T02:18:22;4.75;;;3.33;;
28180;SDS011;15464;50.988;10.318;2023-08-06T02:20:55;4.55;;;3.08;;
28180;SDS011;15464;50.988;10.318;2023-08-06T02:23:24;5.60;;;2.85;;
28180;SDS011;15464;50.988;10.318;2023-08-06T02:26:01;5.70;;;2.55;;
28180;SDS011;15464;50.988;10.318;2023-08-06T02:28:29;2.67;;;2.47;;
28180;SDS011;15464;50.988;10.318;2023-08-06T02:30:56;2.83;;;2.58;;
28180;SDS011;15464;50.988;10.318;2023-08-06T02:33:23;3.05;;;2.50;;
28180;SDS011;15464;50.988;10.318;2023-08-06T02:35:50;3.63;;;2.85;;
28180;SDS011;15464;50.988;10.318;2023-08-06T02:38:16;5.05;;;2.92;;
28180;SDS011;15464;50.988;10.318;2023-08-06T02:40:46;3.33;;;2.97;;
28180;SDS011;15464;50.988;10.318;2023-08-06T02:43:13;3.53;;;3.00;;
28180;SDS011;15464;50.988;10.318;2023-08-06T02:45:40;2.92;;;2.42;;
28180;SDS011;15464;50.988;10.318;2023-08-06T02:48:06;7.75;;;2.83;;
28180;SDS011;15464;50.988;10.318;2023-08-06T02:50:40;5.35;;;2.60;;
28180;SDS011;15464;50.988;10.318;2023-08-06T02:53:08;3.90;;;2.55;;
28180;SDS011;15464;50.988;10.318;2023-08-06T02:55:35;3.88;;;2.55;;
28180;SDS011;15464;50.988;10.318;2023-08-06T02:58:02;3.22;;;2.50;;
28180;SDS011;15464;50.988;10.318;2023-08-06T03:00:29;4.80;;;2.55;;
28180;SDS011;15464;50.988;10.318;2023-08-06T03:02:55;2.95;;;2.65;;
28180;SDS011;15464;50.988;10.318;2023-08-06T03:05:22;5.43;;;2.33;;
28180;SDS011;15464;50.988;10.318;2023-08-06T03:07:49;2.60;;;2.22;;
28180;SDS011;15464;50.988;10.318;2023-08-06T03:10:15;2.88;;;2.53;;
28180;SDS011;15464;50.988;10.318;2023-08-06T03:12:42;2.65;;;1.88;;
28180;SDS011;15464;50.988;10.318;2023-08-06T03:15:09;3.17;;;2.22;;
28180;SDS011;15464;50.988;10.318;2023-08-06T03:17:36;4.60;;;2.63;;
28180;SDS011;15464;50.988;10.318;2023-08-06T03:20:03;4.15;;;2.45;;
28180;SDS011;15464;50.988;10.318;2023-08-06T03:22:30;2.38;;;2.10;;
28180;SDS011;15464;50.988;10.318;2023-08-06T03:24:57;2.97;;;2.33;;
28180;SDS011;15464;50.988;10.318;2023-08-06T03:27:23;2.50;;;2.30;;
28180;SDS011;15464;50.988;10.318;2023-08-06T03:29:50;2.42;;;2.22;;
28180;SDS011;15464;50.988;10.318;2023-08-06T03:32:17;3.65;;;2.45;;
28180;SDS011;15464;50.988;10.318;2023-08-06T03:34:44;5.45;;;2.72;;
28180;SDS011;15464;50.988;10.318;2023-08-06T03:37:10;3.40;;;2.22;;
28180;SDS011;15464;50.988;10.318;2023-08-06T03:39:37;2.90;;;2.28;;
28180;SDS011;15464;50.988;10.318;2023-08-06T03:42:04;2.80;;;2.22;;
28180;SDS011;15464;50.988;10.318;2023-08-06T03:44:31;3.83;;;2.30;;
28180;SDS011;15464;50.988;10.318;2023-08-06T03:46:58;4.55;;;2.50;;
28180;SDS011;15464;50.988;10.318;2023-08-06T03:49:25;3.70;;;2.25;;
28180;SDS011;15464;50.988;10.318;2023-08-06T03:51:52;2.88;;;2.30;;
28180;SDS011;15464;50.988;10.318;2023-08-06T03:54:19;4.03;;;2.42;;
28180;SDS011;15464;50.988;10.318;2023-08-06T03:56:46;2.40;;;2.20;;
28180;SDS011;15464;50.988;10.318;2023-08-06T03:59:12;3.65;;;2.13;;
28180;SDS011;15464;50.988;10.318;2023-08-06T04:01:39;2.50;;;2.13;;
28180;SDS011;15464;50.988;10.318;2023-08-06T04:04:06;2.22;;;1.88;;
28180;SDS011;15464;50.988;10.318;2023-08-06T04:06:33;4.28;;;2.17;;
28180;SDS011;15464;50.988;10.318;2023-08-06T04:08:59;5.63;;;2.63;;
28180;SDS011;15464;50.988;10.318;2023-08-06T04:11:26;4.63;;;2.60;;
28180;SDS011;15464;50.988;10.318;2023-08-06T04:13:53;3.88;;;2.28;;
28180;SDS011;15464;50.988;10.318;2023-08-06T04:16:21;2.33;;;1.83;;
28180;SDS011;15464;50.988;10.318;2023-08-06T04:18:49;2.78;;;2.00;;
28180;SDS011;15464;50.988;10.318;2023-08-06T04:21:16;5.10;;;2.30;;
28180;SDS011;15464;50.988;10.318;2023-08-06T04:23:43;4.85;;;2.40;;
28180;SDS011;15464;50.988;10.318;2023-08-06T04:26:09;3.15;;;2.63;;
28180;SDS011;15464;50.988;10.318;2023-08-06T04:28:36;2.30;;;2.10;;
28180;SDS011;15464;50.988;10.318;2023-08-06T04:31:03;2.55;;;1.92;;
28180;SDS011;15464;50.988;10.318;2023-08-06T04:33:30;3.15;;;2.65;;
28180;SDS011;15464;50.988;10.318;2023-08-06T04:35:56;5.15;;;2.20;;
28180;SDS011;15464;50.988;10.318;2023-08-06T04:38:24;4.38;;;2.17;;
28180;SDS011;15464;50.988;10.318;2023-08-06T04:40:53;4.22;;;2.40;;
28180;SDS011;15464;50.988;10.318;2023-08-06T04:43:20;2.65;;;2.22;;
28180;SDS011;15464;50.988;10.318;2023-08-06T04:45:47;4.82;;;2.50;;
28180;SDS011;15464;50.988;10.318;2023-08-06T04:48:15;2.57;;;2.37;;
28180;SDS011;15464;50.988;10.318;2023-08-06T04:50:45;3.78;;;2.08;;
28180;SDS011;15464;50.988;10.318;2023-08-06T04:53:13;5.00;;;2.58;;
28180;SDS011;15464;50.988;10.318;2023-08-06T04:55:41;3.72;;;3.40;;
28180;SDS011;15464;50.988;10.318;2023-08-06T04:58:09;2.67;;;2.47;;
28180;SDS011;15464;50.988;10.318;2023-08-06T05:00:36;3.50;;;2.53;;
28180;SDS011;15464;50.988;10.318;2023-08-06T05:03:03;3.95;;;2.60;;
28180;SDS011;15464;50.988;10.318;2023-08-06T05:05:30;6.30;;;3.30;;
28180;SDS011;15464;50.988;10.318;2023-08-06T05:07:56;3.90;;;2.80;;
28180;SDS011;15464;50.988;10.318;2023-08-06T05:10:26;3.45;;;2.35;;
28180;SDS011;15464;50.988;10.318;2023-08-06T05:12:53;2.85;;;2.60;;
28180;SDS011;15464;50.988;10.318;2023-08-06T05:15:20;5.35;;;3.47;;
28180;SDS011;15464;50.988;10.318;2023-08-06T05:17:47;3.58;;;3.13;;
28180;SDS011;15464;50.988;10.318;2023-08-06T05:20:14;3.72;;;3.17;;
28180;SDS011;15464;50.988;10.318;2023-08-06T05:22:41;3.05;;;2.75;;
28180;SDS011;15464;50.988;10.318;2023-08-06T05:25:08;4.53;;;3.03;;
28180;SDS011;15464;50.988;10.318;2023-08-06T05:27:34;3.38;;;2.92;;
28180;SDS011;15464;50.988;10.318;2023-08-06T05:30:01;4.68;;;3.47;;
28180;SDS011;15464;50.988;10.318;2023-08-06T05:32:28;3.65;;;3.35;;
28180;SDS011;15464;50.988;10.318;2023-08-06T05:34:55;4.45;;;3.60;;
28180;SDS011;15464;50.988;10.318;2023-08-06T05:37:22;4.68;;;3.63;;
28180;SDS011;15464;50.988;10.318;2023-08-06T05:39:48;3.30;;;3.00;;
28180;SDS011;15464;50.988;10.318;2023-08-06T05:42:15;3.60;;;2.90;;
28180;SDS011;15464;50.988;10.318;2023-08-06T05:44:42;3.20;;;2.80;;
28180;SDS011;15464;50.988;10.318;2023-08-06T05:47:09;4.60;;;3.50;;
28180;SDS011;15464;50.988;10.318;2023-08-06T05:49:36;3.10;;;2.80;;
28180;SDS011;15464;50.988;10.318;2023-08-06T05:52:03;3.47;;;2.90;;
28180;SDS011;15464;50.988;10.318;2023-08-06T05:56:59;3.33;;;3.10;;
28180;SDS011;15464;50.988;10.318;2023-08-06T05:59:25;4.32;;;3.10;;
28180;SDS011;15464;50.988;10.318;2023-08-06T06:01:52;5.13;;;3.20;;
28180;SDS011;15464;50.988;10.318;2023-08-06T06:04:20;3.72;;;2.80;;
28180;SDS011;15464;50.988;10.318;2023-08-06T06:06:47;3.22;;;2.92;;
28180;SDS011;15464;50.988;10.318;2023-08-06T06:09:14;3.58;;;3.28;;
28180;SDS011;15464;50.988;10.318;2023-08-06T06:11:41;2.95;;;2.75;;
28180;SDS011;15464;50.988;10.318;2023-08-06T06:14:07;3.00;;;2.65;;
28180;SDS011;15464;50.988;10.318;2023-08-06T06:16:34;4.72;;;2.90;;
28180;SDS011;15464;50.988;10.318;2023-08-06T06:19:01;5.75;;;2.78;;
28180;SDS011;15464;50.988;10.318;2023-08-06T06:21:27;3.65;;;2.78;;
28180;SDS011;15464;50.988;10.318;2023-08-06T06:23:54;3.60;;;3.30;;
28180;SDS011;15464;50.988;10.318;2023-08-06T06:26:21;2.80;;;2.58;;
28180;SDS011;15464;50.988;10.318;2023-08-06T06:28:47;4.18;;;3.60;;
28180;SDS011;15464;50.988;10.318;2023-08-06T06:31:14;3.40;;;3.10;;
28180;SDS011;15464;50.988;10.318;2023-08-06T06:33:41;4.35;;;3.47;;
28180;SDS011;15464;50.988;10.318;2023-08-06T06:36:07;3.90;;;3.47;;
28180;SDS011;15464;50.988;10.318;2023-08-06T06:38:34;3.17;;;2.88;;
28180;SDS011;15464;50.988;10.318;2023-08-06T06:41:01;4.32;;;3.40;;
28180;SDS011;15464;50.988;10.318;2023-08-06T06:43:29;4.07;;;3.50;;
28180;SDS011;15464;50.988;10.318;2023-08-06T06:45:56;3.13;;;2.70;;
28180;SDS011;15464;50.988;10.318;2023-08-06T06:48:27;3.17;;;2.65;;
28180;SDS011;15464;50.988;10.318;2023-08-06T06:50:57;3.20;;;2.90;;
28180;SDS011;15464;50.988;10.318;2023-08-06T06:53:24;4.20;;;2.72;;
28180;SDS011;15464;50.988;10.318;2023-08-06T06:56:03;3.38;;;2.95;;
28180;SDS011;15464;50.988;10.318;2023-08-06T06:58:31;3.88;;;2.47;;
28180;SDS011;15464;50.988;10.318;2023-08-06T07:00:59;3.58;;;2.85;;
28180;SDS011;15464;50.988;10.318;2023-08-06T07:03:25;3.67;;;3.22;;
28180;SDS011;15464;50.988;10.318;2023-08-06T07:05:56;3.20;;;2.78;;
28180;SDS011;15464;50.988;10.318;2023-08-06T07:08:25;4.60;;;2.53;;
28180;SDS011;15464;50.988;10.318;2023-08-06T07:10:59;2.53;;;2.13;;
28180;SDS011;15464;50.988;10.318;2023-08-06T07:13:30;6.67;;;2.77;;
28180;SDS011;15464;50.988;10.318;2023-08-06T07:15:58;3.00;;;2.70;;
28180;SDS011;15464;50.988;10.318;2023-08-06T07:18:24;2.83;;;2.63;;
28180;SDS011;15464;50.988;10.318;2023-08-06T07:20:52;3.33;;;2.70;;
28180;SDS011;15464;50.988;10.318;2023-08-06T07:23:20;4.00;;;2.85;;
28180;SDS011;15464;50.988;10.318;2023-08-06T07:25:47;3.08;;;2.63;;
28180;SDS011;15464;50.988;10.318;2023-08-06T07:28:14;3.88;;;2.22;;
28180;SDS011;15464;50.988;10.318;2023-08-06T07:30:42;3.78;;;2.78;;
28180;SDS011;15464;50.988;10.318;2023-08-06T07:33:10;2.63;;;2.40;;
28180;SDS011;15464;50.988;10.318;2023-08-06T07:35:37;3.20;;;2.10;;
28180;SDS011;15464;50.988;10.318;2023-08-06T07:38:04;3.63;;;2.38;;
28180;SDS011;15464;50.988;10.318;2023-08-06T07:40:31;2.95;;;2.50;;
28180;SDS011;15464;50.988;10.318;2023-08-06T07:42:57;2.95;;;2.30;;
28180;SDS011;15464;50.988;10.318;2023-08-06T07:45:24;3.17;;;2.00;;
28180;SDS011;15464;50.988;10.318;2023-08-06T07:47:51;6.28;;;2.40;;
28180;SDS011;15464;50.988;10.318;2023-08-06T07:50:17;8.10;;;2.60;;
28180;SDS011;15464;50.988;10.318;2023-08-06T07:52:44;3.83;;;2.35;;
28180;SDS011;15464;50.988;10.318;2023-08-06T07:55:11;4.07;;;2.25;;
28180;SDS011;15464;50.988;10.318;2023-08-06T07:57:38;2.85;;;2.20;;
28180;SDS011;15464;50.988;10.318;2023-08-06T08:00:05;2.55;;;2.30;;
28180;SDS011;15464;50.988;10.318;2023-08-06T08:02:32;2.85;;;2.15;;
28180;SDS011;15464;50.988;10.318;2023-08-06T08:04:58;3.42;;;2.38;;
28180;SDS011;15464;50.988;10.318;2023-08-06T08:07:25;3.42;;;2.30;;
28180;SDS011;15464;50.988;10.318;2023-08-06T08:09:54;2.22;;;2.05;;
28180;SDS011;15464;50.988;10.318;2023-08-06T08:12:21;3.42;;;1.95;;
28180;SDS011;15464;50.988;10.318;2023-08-06T08:14:48;2.72;;;2.08;;
28180;SDS011;15464;50.988;10.318;2023-08-06T08:17:14;2.08;;;1.88;;
28180;SDS011;15464;50.988;10.318;2023-08-06T08:19:41;3.47;;;1.92;;
28180;SDS011;15464;50.988;10.318;2023-08-06T08:22:08;2.95;;;1.90;;
28180;SDS011;15464;50.988;10.318;2023-08-06T08:24:34;4.72;;;2.08;;
28180;SDS011;15464;50.988;10.318;2023-08-06T08:27:01;3.40;;;1.90;;
28180;SDS011;15464;50.988;10.318;2023-08-06T08:29:28;3.15;;;1.73;;
28180;SDS011;15464;50.988;10.318;2023-08-06T08:31:54;2.38;;;1.50;;
28180;SDS011;15464;50.988;10.318;2023-08-06T08:34:22;3.08;;;2.05;;
28180;SDS011;15464;50.988;10.318;2023-08-06T08:36:48;4.22;;;2.00;;
28180;SDS011;15464;50.988;10.318;2023-08-06T08:39:16;2.95;;;1.83;;
28180;SDS011;15464;50.988;10.318;2023-08-06T08:41:42;2.65;;;1.98;;
28180;SDS011;15464;50.988;10.318;2023-08-06T08:44:09;2.80;;;2.15;;
28180;SDS011;15464;50.988;10.318;2023-08-06T08:46:40;3.75;;;1.95;;
28180;SDS011;15464;50.988;10.318;2023-08-06T08:49:07;2.30;;;1.70;;
28180;SDS011;15464;50.988;10.318;2023-08-06T08:51:34;2.80;;;1.67;;
28180;SDS011;15464;50.988;10.318;2023-08-06T08:54:03;2.83;;;1.63;;
28180;SDS011;15464;50.988;10.318;2023-08-06T08:56:31;4.65;;;1.90;;
28180;SDS011;15464;50.988;10.318;2023-08-06T08:58:58;1.80;;;1.50;;
28180;SDS011;15464;50.988;10.318;2023-08-06T09:01:26;2.03;;;1.73;;
28180;SDS011;15464;50.988;10.318;2023-08-06T09:03:55;1.98;;;1.60;;
28180;SDS011;15464;50.988;10.318;2023-08-06T09:06:25;3.22;;;1.77;;
28180;SDS011;15464;50.988;10.318;2023-08-06T09:08:56;3.00;;;2.05;;
28180;SDS011;15464;50.988;10.318;2023-08-06T09:11:30;3.10;;;2.15;;
28180;SDS011;15464;50.988;10.318;2023-08-06T09:14:06;3.70;;;1.80;;
28180;SDS011;15464;50.988;10.318;2023-08-06T09:16:35;2.33;;;1.88;;
28180;SDS011;15464;50.988;10.318;2023-08-06T09:19:08;3.28;;;1.67;;
28180;SDS011;15464;50.988;10.318;2023-08-06T09:21:39;2.63;;;1.67;;
28180;SDS011;15464;50.988;10.318;2023-08-06T09:24:10;1.85;;;1.50;;
28180;SDS011;15464;50.988;10.318;2023-08-06T09:26:42;2.88;;;1.67;;
28180;SDS011;15464;50.988;10.318;2023-08-06T09:29:11;2.03;;;1.70;;
28180;SDS011;15464;50.988;10.318;2023-08-06T09:31:45;3.60;;;1.60;;
28180;SDS011;15464;50.988;10.318;2023-08-06T09:34:17;1.88;;;1.60;;
28180;SDS011;15464;50.988;10.318;2023-08-06T09:36:46;2.67;;;1.50;;
28180;SDS011;15464;50.988;10.318;2023-08-06T09:39:20;2.45;;;1.55;;
28180;SDS011;15464;50.988;10.318;2023-08-06T09:41:48;2.47;;;1.50;;
28180;SDS011;15464;50.988;10.318;2023-08-06T09:44:18;1.90;;;1.40;;
28180;SDS011;15464;50.988;10.318;2023-08-06T09:46:49;2.08;;;1.30;;
28180;SDS011;15464;50.988;10.318;2023-08-06T09:49:17;3.53;;;1.48;;
28180;SDS011;15464;50.988;10.318;2023-08-06T09:51:47;1.95;;;1.42;;
28180;SDS011;15464;50.988;10.318;2023-08-06T09:54:18;1.58;;;1.48;;
28180;SDS011;15464;50.988;10.318;2023-08-06T09:56:53;1.40;;;1.30;;
28180;SDS011;15464;50.988;10.318;2023-08-06T09:59:22;3.38;;;1.60;;
28180;SDS011;15464;50.988;10.318;2023-08-06T10:01:50;3.75;;;1.60;;
28180;SDS011;15464;50.988;10.318;2023-08-06T10:04:19;2.20;;;1.30;;
28180;SDS011;15464;50.988;10.318;2023-08-06T10:06:52;1.88;;;1.20;;
28180;SDS011;15464;50.988;10.318;2023-08-06T10:09:20;2.00;;;1.40;;
28180;SDS011;15464;50.988;10.318;2023-08-06T10:11:49;2.50;;;1.33;;
28180;SDS011;15464;50.988;10.318;2023-08-06T10:14:23;2.88;;;1.38;;
28180;SDS011;15464;50.988;10.318;2023-08-06T10:16:53;1.55;;;1.40;;
28180;SDS011;15464;50.988;10.318;2023-08-06T10:19:23;3.08;;;1.55;;
28180;SDS011;15464;50.988;10.318;2023-08-06T10:22:10;2.65;;;1.40;;
28180;SDS011;15464;50.988;10.318;2023-08-06T10:24:53;11.45;;;2.17;;
28180;SDS011;15464;50.988;10.318;2023-08-06T10:33:00;4.88;;;1.80;;
28180;SDS011;15464;50.988;10.318;2023-08-06T10:38:27;3.10;;;1.38;;
28180;SDS011;15464;50.988;10.318;2023-08-06T10:43:32;2.70;;;1.80;;
28180;SDS011;15464;50.988;10.318;2023-08-06T10:46:01;4.28;;;2.00;;
28180;SDS011;15464;50.988;10.318;2023-08-06T10:48:31;2.33;;;1.48;;
28180;SDS011;15464;50.988;10.318;2023-08-06T10:51:00;2.80;;;1.75;;
28180;SDS011;15464;50.988;10.318;2023-08-06T10:53:28;2.70;;;1.60;;
28180;SDS011;15464;50.988;10.318;2023-08-06T10:55:59;3.28;;;1.70;;
28180;SDS011;15464;50.988;10.318;2023-08-06T10:58:35;2.25;;;1.50;;
28180;SDS011;15464;50.988;10.318;2023-08-06T11:01:02;1.80;;;1.33;;
28180;SDS011;15464;50.988;10.318;2023-08-06T11:03:29;1.67;;;1.45;;
28180;SDS011;15464;50.988;10.318;2023-08-06T11:05:56;1.52;;;1.30;;
28180;SDS011;15464;50.988;10.318;2023-08-06T11:08:25;2.22;;;1.50;;
28180;SDS011;15464;50.988;10.318;2023-08-06T11:10:55;2.28;;;1.50;;
28180;SDS011;15464;50.988;10.318;2023-08-06T11:13:33;4.70;;;1.60;;
28180;SDS011;15464;50.988;10.318;2023-08-06T11:16:00;1.95;;;1.23;;
28180;SDS011;15464;50.988;10.318;2023-08-06T11:18:27;1.65;;;1.10;;
28180;SDS011;15464;50.988;10.318;2023-08-06T11:20:54;1.38;;;1.10;;
28180;SDS011;15464;50.988;10.318;2023-08-06T11:23:21;1.48;;;1.00;;
28180;SDS011;15464;50.988;10.318;2023-08-06T11:25:48;1.60;;;1.00;;
28180;SDS011;15464;50.988;10.318;2023-08-06T11:28:14;1.50;;;1.00;;
28180;SDS011;15464;50.988;10.318;2023-08-06T11:30:41;1.75;;;1.00;;
28180;SDS011;15464;50.988;10.318;2023-08-06T11:33:08;3.55;;;1.13;;
28180;SDS011;15464;50.988;10.318;2023-08-06T11:35:36;0.82;;;0.80;;
28180;SDS011;15464;50.988;10.318;2023-08-06T11:38:03;2.05;;;0.98;;
28180;SDS011;15464;50.988;10.318;2023-08-06T11:40:31;0.70;;;0.70;;
28180;SDS011;15464;50.988;10.318;2023-08-06T11:42:58;0.82;;;0.70;;
28180;SDS011;15464;50.988;10.318;2023-08-06T11:45:25;1.42;;;0.70;;
28180;SDS011;15464;50.988;10.318;2023-08-06T11:47:52;2.42;;;0.65;;
28180;SDS011;15464;50.988;10.318;2023-08-06T11:50:26;0.90;;;0.80;;
28180;SDS011;15464;50.988;10.318;2023-08-06T11:52:56;3.20;;;0.80;;
28180;SDS011;15464;50.988;10.318;2023-08-06T11:55:24;1.15;;;0.70;;
28180;SDS011;15464;50.988;10.318;2023-08-06T11:57:52;0.73;;;0.60;;
28180;SDS011;15464;50.988;10.318;2023-08-06T12:00:18;2.08;;;0.60;;
28180;SDS011;15464;50.988;10.318;2023-08-06T12:05:17;1.07;;;0.70;;
28180;SDS011;15464;50.988;10.318;2023-08-06T12:07:50;0.50;;;0.50;;
28180;SDS011;15464;50.988;10.318;2023-08-06T12:10:24;1.00;;;0.80;;
28180;SDS011;15464;50.988;10.318;2023-08-06T12:12:52;0.67;;;0.57;;
28180;SDS011;15464;50.988;10.318;2023-08-06T12:15:20;0.98;;;0.52;;
28180;SDS011;15464;50.988;10.318;2023-08-06T12:17:47;1.63;;;0.60;;
28180;SDS011;15464;50.988;10.318;2023-08-06T12:20:15;0.32;;;0.30;;
28180;SDS011;15464;50.988;10.318;2023-08-06T12:22:42;0.40;;;0.40;;
28180;SDS011;15464;50.988;10.318;2023-08-06T12:25:09;0.93;;;0.30;;
28180;SDS011;15464;50.988;10.318;2023-08-06T12:27:39;1.38;;;0.65;;
28180;SDS011;15464;50.988;10.318;2023-08-06T12:30:08;0.60;;;0.40;;
28180;SDS011;15464;50.988;10.318;2023-08-06T12:32:37;0.63;;;0.50;;
28180;SDS011;15464;50.988;10.318;2023-08-06T12:35:05;0.88;;;0.47;;
28180;SDS011;15464;50.988;10.318;2023-08-06T12:37:34;0.40;;;0.40;;
28180;SDS011;15464;50.988;10.318;2023-08-06T12:40:01;0.40;;;0.40;;
28180;SDS011;15464;50.988;10.318;2023-08-06T12:42:47;2.05;;;0.50;;
28180;SDS011;15464;50.988;10.318;2023-08-06T12:45:16;2.30;;;0.57;;
28180;SDS011;15464;50.988;10.318;2023-08-06T12:47:43;0.65;;;0.40;;
28180;SDS011;15464;50.988;10.318;2023-08-06T12:50:10;1.70;;;0.50;;
28180;SDS011;15464;50.988;10.318;2023-08-06T12:52:37;1.13;;;0.57;;
28180;SDS011;15464;50.988;10.318;2023-08-06T12:55:03;0.60;;;0.40;;
28180;SDS011;15464;50.988;10.318;2023-08-06T12:57:30;0.85;;;0.68;;
28180;SDS011;15464;50.988;10.318;2023-08-06T13:00:17;0.50;;;0.40;;
28180;SDS011;15464;50.988;10.318;2023-08-06T13:02:44;0.52;;;0.40;;
28180;SDS011;15464;50.988;10.318;2023-08-06T13:05:10;0.70;;;0.40;;
28180;SDS011;15464;50.988;10.318;2023-08-06T13:07:37;0.30;;;0.30;;
28180;SDS011;15464;50.988;10.318;2023-08-06T13:10:04;0.73;;;0.40;;
28180;SDS011;15464;50.988;10.318;2023-08-06T13:12:31;0.85;;;0.43;;
28180;SDS011;15464;50.988;10.318;2023-08-06T13:14:58;0.40;;;0.40;;
28180;SDS011;15464;50.988;10.318;2023-08-06T13:17:25;1.20;;;0.50;;
28180;SDS011;15464;50.988;10.318;2023-08-06T13:19:53;1.48;;;0.20;;
28180;SDS011;15464;50.988;10.318;2023-08-06T13:22:20;0.30;;;0.30;;
28180;SDS011;15464;50.988;10.318;2023-08-06T13:24:47;1.75;;;0.40;;
28180;SDS011;15464;50.988;10.318;2023-08-06T13:27:13;1.55;;;0.30;;
28180;SDS011;15464;50.988;10.318;2023-08-06T13:29:40;0.63;;;0.30;;
28180;SDS011;15464;50.988;10.318;2023-08-06T13:32:07;0.95;;;0.40;;
28180;SDS011;15464;50.988;10.318;2023-08-06T13:34:33;2.22;;;0.40;;
28180;SDS011;15464;50.988;10.318;2023-08-06T13:37:00;0.38;;;0.30;;
28180;SDS011;15464;50.988;10.318;2023-08-06T13:39:27;0.95;;;0.40;;
28180;SDS011;15464;50.988;10.318;2023-08-06T13:41:53;0.30;;;0.25;;
28180;SDS011;15464;50.988;10.318;2023-08-06T13:44:20;0.73;;;0.32;;
28180;SDS011;15464;50.988;10.318;2023-08-06T13:46:47;2.30;;;0.40;;
28180;SDS011;15464;50.988;10.318;2023-08-06T13:49:13;0.30;;;0.30;;
28180;SDS011;15464;50.988;10.318;2023-08-06T13:51:40;0.85;;;0.43;;
28180;SDS011;15464;50.988;10.318;2023-08-06T13:54:07;0.32;;;0.30;;
28180;SDS011;15464;50.988;10.318;2023-08-06T13:56:34;0.65;;;0.43;;
28180;SDS011;15464;50.988;10.318;2023-08-06T13:59:01;0.32;;;0.30;;
28180;SDS011;15464;50.988;10.318;2023-08-06T14:01:28;0.43;;;0.43;;
28180;SDS011;15464;50.988;10.318;2023-08-06T14:04:14;0.68;;;0.50;;
28180;SDS011;15464;50.988;10.318;2023-08-06T14:06:41;0.55;;;0.45;;
28180;SDS011;15464;50.988;10.318;2023-08-06T14:09:08;0.35;;;0.30;;
28180;SDS011;15464;50.988;10.318;2023-08-06T14:11:35;0.38;;;0.30;;
28180;SDS011;15464;50.988;10.318;2023-08-06T14:14:01;0.43;;;0.30;;
28180;SDS011;15464;50.988;10.318;2023-08-06T14:16:29;0.30;;;0.30;;
28180;SDS011;15464;50.988;10.318;2023-08-06T14:18:56;0.68;;;0.30;;
28180;SDS011;15464;50.988;10.318;2023-08-06T14:21:23;0.35;;;0.30;;
28180;SDS011;15464;50.988;10.318;2023-08-06T14:23:49;0.90;;;0.32;;
28180;SDS011;15464;50.988;10.318;2023-08-06T14:26:16;0.60;;;0.35;;
28180;SDS011;15464;50.988;10.318;2023-08-06T14:28:43;1.95;;;0.40;;
28180;SDS011;15464;50.988;10.318;2023-08-06T14:31:11;0.68;;;0.30;;
28180;SDS011;15464;50.988;10.318;2023-08-06T14:33:38;0.98;;;0.45;;
28180;SDS011;15464;50.988;10.318;2023-08-06T14:36:04;0.40;;;0.40;;
28180;SDS011;15464;50.988;10.318;2023-08-06T14:38:31;0.43;;;0.30;;
28180;SDS011;15464;50.988;10.318;2023-08-06T14:41:05;0.30;;;0.30;;
28180;SDS011;15464;50.988;10.318;2023-08-06T14:43:33;0.52;;;0.30;;
28180;SDS011;15464;50.988;10.318;2023-08-06T14:45:59;1.33;;;0.38;;
28180;SDS011;15464;50.988;10.318;2023-08-06T14:48:26;0.98;;;0.50;;
28180;SDS011;15464;50.988;10.318;2023-08-06T14:50:53;0.93;;;0.63;;
28180;SDS011;15464;50.988;10.318;2023-08-06T14:53:21;0.52;;;0.40;;
28180;SDS011;15464;50.988;10.318;2023-08-06T14:55:48;1.83;;;0.30;;
28180;SDS011;15464;50.988;10.318;2023-08-06T14:58:15;0.25;;;0.20;;